Time;durP1;ratioP1;P1;durP2;ratioP2;P2;SDS_P1;SDS_P2;PMS_P1;PMS_P2;Temp;Humidity;BMP_temperature;BMP_pressure;BME280_temperature;BME280_humidity;BME280_pressure;Samples;Min_cycle;Max_cycle;Signal;HPM_P1;HPM_P2
2023/02/22 00:02:12;;;;;;;7.80;3.60;;;;;;;7.47;67.97;100770.70;107561;1253;111606;-61
2023/02/22 00:04:41;;;;;;;7.40;4.10;;;;;;;7.46;68.14;100776.60;107585;1254;110374;-59
2023/02/22 00:07:09;;;;;;;8.50;4.40;;;;;;;7.46;68.09;100781.25;107586;1256;108474;-60
2023/02/22 00:09:37;;;;;;;7.10;3.50;;;;;;;7.46;68.14;100780.39;107559;1255;97845;-61
2023/02/22 00:12:09;;;;;;;6.10;3.70;;;;;;;7.44;68.43;100782.83;107582;1253;97924;-60
2023/02/22 00:14:39;;;;;;;8.50;4.00;;;;;;;7.42;68.28;100784.77;107611;1253;110711;-62
2023/02/22 00:17:07;;;;;;;10.20;4.40;;;;;;;7.39;68.01;100784.29;107625;1254;109708;-60
2023/02/22 00:19:35;;;;;;;6.30;4.40;;;;;;;7.36;68.11;100784.50;107559;1253;106822;-62
2023/02/22 00:22:04;;;;;;;6.60;3.90;;;;;;;7.33;68.12;100779.35;107559;1257;97938;-61
2023/02/22 00:24:34;;;;;;;13.70;4.90;;;;;;;7.32;68.20;100782.63;107585;1254;97723;-63
2023/02/22 00:27:03;;;;;;;7.90;4.10;;;;;;;7.33;68.33;100782.63;107619;1254;110412;-61
2023/02/22 00:29:33;;;;;;;9.10;4.30;;;;;;;7.33;68.63;100780.30;107542;1254;109710;-61
2023/02/22 00:32:01;;;;;;;13.00;4.80;;;;;;;7.34;68.84;100782.16;107601;1254;107105;-62
2023/02/22 00:34:30;;;;;;;9.30;4.10;;;;;;;7.38;68.72;100789.21;107555;1254;97829;-61
2023/02/22 00:37:01;;;;;;;7.40;2.80;;;;;;;7.36;67.44;100795.93;107580;1253;98463;-61
2023/02/22 00:39:31;;;;;;;10.10;2.80;;;;;;;7.28;66.29;100798.13;107557;1253;111653;-60
2023/02/22 00:41:59;;;;;;;7.60;3.00;;;;;;;7.19;65.81;100797.35;107564;1252;110362;-61
2023/02/22 00:44:29;;;;;;;7.00;2.50;;;;;;;7.15;65.40;100801.77;107623;1254;108080;-60
2023/02/22 00:46:58;;;;;;;9.40;3.00;;;;;;;7.13;65.22;100805.64;107463;1254;97812;-61
2023/02/22 00:49:26;;;;;;;6.80;3.10;;;;;;;7.14;65.60;100809.51;107475;1254;99598;-60
2023/02/22 00:51:55;;;;;;;8.30;2.30;;;;;;;7.15;65.72;100811.00;107498;1254;111745;-61
2023/02/22 00:54:24;;;;;;;12.60;2.90;;;;;;;7.12;65.64;100808.79;107471;1257;109594;-60
2023/02/22 00:56:53;;;;;;;7.20;2.50;;;;;;;7.06;66.00;100815.08;107569;1257;108589;-61
2023/02/22 00:59:21;;;;;;;9.50;3.20;;;;;;;7.01;65.78;100809.73;107597;1253;97824;-61
2023/02/22 01:01:50;;;;;;;7.30;2.80;;;;;;;6.97;65.64;100808.41;107611;1253;97707;-61
2023/02/22 01:04:18;;;;;;;12.70;3.20;;;;;;;6.94;65.86;100808.11;107605;1253;111306;-61
2023/02/22 01:06:47;;;;;;;10.80;4.00;;;;;;;6.93;65.54;100806.21;107591;1254;109959;-60
2023/02/22 01:09:16;;;;;;;10.30;2.50;;;;;;;6.90;65.14;100810.70;107434;1259;106861;-60
2023/02/22 01:11:44;;;;;;;9.20;3.10;;;;;;;6.84;64.74;100808.42;107570;1254;97832;-60
2023/02/22 01:14:13;;;;;;;16.10;4.50;;;;;;;6.80;64.25;100811.96;107596;1253;97825;-61
2023/02/22 01:16:41;;;;;;;8.40;2.30;;;;;;;6.78;64.31;100820.48;107560;1254;111916;-59
2023/02/22 01:19:11;;;;;;;13.40;2.40;;;;;;;6.76;63.80;100819.70;107611;1254;110716;-60
2023/02/22 01:21:40;;;;;;;10.00;3.00;;;;;;;6.72;63.24;100823.01;107589;1254;107612;-60
2023/02/22 01:24:09;;;;;;;6.40;2.70;;;;;;;6.69;62.72;100825.20;107601;1253;97840;-61
2023/02/22 01:26:37;;;;;;;8.50;3.10;;;;;;;6.67;62.36;100823.77;107519;1254;98566;-62
2023/02/22 01:29:07;;;;;;;6.90;2.70;;;;;;;6.64;62.29;100822.69;107473;1254;111698;-61
2023/02/22 01:31:35;;;;;;;8.90;3.50;;;;;;;6.61;62.37;100822.23;107469;1254;110342;-61
2023/02/22 01:34:05;;;;;;;8.70;2.50;;;;;;;6.60;62.51;100826.38;107467;1254;108074;-60
2023/02/22 01:36:34;;;;;;;8.80;2.60;;;;;;;6.58;61.94;100828.29;107473;1254;97833;-61
2023/02/22 01:39:03;;;;;;;12.70;2.80;;;;;;;6.57;62.25;100825.49;107333;1254;97886;-62
2023/02/22 01:41:32;;;;;;;13.10;2.40;;;;;;;6.56;61.35;100831.44;107498;1254;111462;-60
2023/02/22 01:44:29;;;;;;;14.50;2.90;;;;;;;6.54;60.90;100833.23;107352;1254;109050;-60
2023/02/22 01:47:02;;;;;;;6.50;2.30;;;;;;;6.53;60.52;100833.27;107372;1254;106935;-60
2023/02/22 01:49:40;;;;;;;14.10;2.80;;;;;;;6.51;60.40;100833.79;107533;1253;97827;-61
2023/02/22 01:52:18;;;;;;;13.20;2.50;;;;;;;6.50;60.19;100834.70;107481;1253;97857;-60
2023/02/22 01:54:56;;;;;;;8.90;2.70;;;;;;;6.52;60.32;100836.05;107481;1259;112267;-61
2023/02/22 01:57:29;;;;;;;10.70;2.50;;;;;;;6.52;60.05;100835.29;107614;1254;110092;-60
2023/02/22 02:00:10;;;;;;;8.00;2.30;;;;;;;6.52;59.37;100836.02;107450;1254;108279;-61
2023/02/22 02:02:47;;;;;;;8.30;2.00;;;;;;;6.54;59.44;100843.05;107578;1253;97845;-60
2023/02/22 02:05:20;;;;;;;6.80;2.20;;;;;;;6.53;58.68;100840.75;107599;1254;97833;-60
2023/02/22 02:07:48;;;;;;;14.40;2.80;;;;;;;6.52;58.36;100843.50;107610;1254;112272;-60
2023/02/22 02:10:23;;;;;;;10.20;2.50;;;;;;;6.53;58.07;100852.74;107534;1253;109717;-60
2023/02/22 02:12:52;;;;;;;12.00;2.50;;;;;;;6.53;58.15;100849.70;107370;1254;107752;-61
2023/02/22 02:15:25;;;;;;;9.40;1.90;;;;;;;6.52;57.75;100853.09;107481;1254;97822;-61
2023/02/22 02:17:59;;;;;;;9.00;2.20;;;;;;;6.53;57.68;100852.51;107489;1254;97820;-61
2023/02/22 02:21:09;;;;;;;7.80;2.30;;;;;;;6.56;57.91;100858.94;107539;1254;112272;-60
2023/02/22 02:23:53;;;;;;;8.40;1.90;;;;;;;6.59;57.97;100856.60;107610;1254;108934;-60
2023/02/22 02:26:33;;;;;;;8.00;2.20;;;;;;;6.63;58.42;100859.86;107588;1253;108076;-60
2023/02/22 02:29:14;;;;;;;12.60;2.70;;;;;;;6.66;58.43;100864.45;107428;1254;97913;-61
2023/02/22 02:32:03;;;;;;;13.10;2.50;;;;;;;6.67;58.51;100861.71;107465;1253;97890;-61
2023/02/22 02:34:40;;;;;;;8.20;2.20;;;;;;;6.66;58.44;100862.48;107461;1254;112222;-62
2023/02/22 02:37:19;;;;;;;9.30;2.20;;;;;;;6.64;58.52;100865.70;107430;1254;110157;-61
2023/02/22 02:40:10;;;;;;;13.50;2.60;;;;;;;6.63;58.62;100864.70;107416;1254;108227;-60
2023/02/22 02:43:00;;;;;;;11.80;2.30;;;;;;;6.58;58.83;100877.64;107427;1254;97906;-60
2023/02/22 02:46:24;;;;;;;9.20;2.20;;;;;;;6.56;58.92;100887.20;107471;1254;99506;-61
2023/02/22 02:49:01;;;;;;;8.60;2.50;;;;;;;6.51;58.93;100885.80;107436;1254;111566;-61
2023/02/22 02:51:40;;;;;;;7.60;2.80;;;;;;;6.49;59.04;100887.91;107475;1253;108255;-61
2023/02/22 02:54:10;;;;;;;7.50;3.30;;;;;;;6.47;59.09;100890.73;107629;1254;109400;-61
2023/02/22 02:56:40;;;;;;;8.20;2.70;;;;;;;6.47;59.29;100894.85;107626;1254;97911;-61
2023/02/22 02:59:26;;;;;;;14.20;3.20;;;;;;;6.46;59.28;100896.86;107473;1259;97822;-61
2023/02/22 03:02:00;;;;;;;9.10;3.50;;;;;;;6.44;59.37;100891.45;107597;1254;112176;-61
2023/02/22 03:04:32;;;;;;;13.60;3.00;;;;;;;6.44;59.27;100894.71;107497;1254;109971;-61
2023/02/22 03:07:04;;;;;;;14.80;2.80;;;;;;;6.42;58.89;100894.79;107576;1254;108643;-61
2023/02/22 03:09:49;;;;;;;11.40;2.90;;;;;;;6.42;58.89;100896.39;107532;1254;97837;-61
2023/02/22 03:12:32;;;;;;;9.10;2.60;;;;;;;6.42;58.90;100901.60;107511;1254;97687;-60
2023/02/22 03:15:20;;;;;;;14.10;3.10;;;;;;;6.40;59.26;100906.52;107507;1253;112201;-60
2023/02/22 03:18:05;;;;;;;13.40;3.20;;;;;;;6.37;59.16;100909.03;107482;1254;109522;-62
2023/02/22 03:20:54;;;;;;;;;;;;;;;6.35;59.14;100907.92;107595;1254;108579;-61
2023/02/22 03:23:25;;;;;;;14.00;2.80;;;;;;;6.31;59.21;100911.25;107602;1256;97909;-60
2023/02/22 03:26:08;;;;;;;14.90;2.40;;;;;;;6.29;59.32;100908.52;107643;1254;97838;-62
2023/02/22 03:28:41;;;;;;;12.30;3.80;;;;;;;6.27;59.16;100912.77;107619;1254;111855;-61
2023/02/22 03:31:16;;;;;;;13.20;3.30;;;;;;;6.24;59.18;100913.45;107520;1254;109008;-61
2023/02/22 03:34:01;;;;;;;13.90;3.30;;;;;;;6.23;59.02;100914.98;107653;1253;108645;-60
2023/02/22 03:36:37;;;;;;;15.20;3.50;;;;;;;6.22;59.06;100921.09;107453;1254;97960;-62
2023/02/22 03:39:11;;;;;;;15.10;3.70;;;;;;;6.23;59.06;100922.64;107625;1254;97740;-60
2023/02/22 03:41:40;;;;;;;9.50;2.80;;;;;;;6.24;59.09;100920.27;107620;1253;112364;-61
2023/02/22 03:44:16;;;;;;;7.80;2.80;;;;;;;6.26;59.17;100917.65;107600;1254;108980;-60
2023/02/22 03:46:49;;;;;;;15.40;3.50;;;;;;;6.28;59.40;100922.66;107441;1254;108499;-61
2023/02/22 03:49:40;;;;;;;11.70;3.10;;;;;;;6.29;59.34;100929.73;107622;1254;97838;-60
2023/02/22 03:52:11;;;;;;;13.70;3.20;;;;;;;6.30;59.32;100933.77;107532;1256;98406;-60
2023/02/22 03:54:40;;;;;;;14.90;3.50;;;;;;;6.25;59.04;100939.81;107627;1256;111769;-60
2023/02/22 03:57:15;;;;;;;10.70;3.00;;;;;;;6.20;59.28;100941.20;107608;1254;110098;-60
2023/02/22 03:59:45;;;;;;;9.60;3.00;;;;;;;6.15;59.19;100944.17;107620;1254;107645;-60
2023/02/22 04:02:17;;;;;;;11.20;2.60;;;;;;;6.09;59.04;100948.52;107470;1259;97783;-60
2023/02/22 04:04:47;;;;;;;11.70;2.90;;;;;;;6.04;59.03;100950.96;107495;1253;97761;-61
2023/02/22 04:07:16;;;;;;;15.70;3.10;;;;;;;6.01;59.25;100949.20;107449;1254;111268;-60
2023/02/22 04:09:45;;;;;;;16.50;3.90;;;;;;;5.96;59.07;100951.27;107648;1253;109189;-61
2023/02/22 04:12:14;;;;;;;17.40;4.20;;;;;;;5.91;59.18;100953.38;107453;1258;107500;-61
2023/02/22 04:14:54;;;;;;;14.40;3.50;;;;;;;5.88;59.18;100952.14;107498;1254;97870;-60
2023/02/22 04:17:22;;;;;;;19.70;3.80;;;;;;;5.86;59.41;100954.66;107636;1253;97830;-60
2023/02/22 04:19:50;;;;;;;17.50;3.60;;;;;;;5.81;59.25;100955.44;107653;1253;112065;-62
2023/02/22 04:22:19;;;;;;;18.00;3.60;;;;;;;5.77;59.25;100964.85;107475;1254;110112;-60
2023/02/22 04:24:48;;;;;;;17.20;2.90;;;;;;;5.77;59.17;100972.99;107448;1254;107574;-60
2023/02/22 04:27:17;;;;;;;11.60;3.20;;;;;;;5.78;59.40;100975.77;107640;1254;97835;-61
2023/02/22 04:29:48;;;;;;;16.80;3.50;;;;;;;5.77;59.41;100974.20;107523;1253;97822;-60
2023/02/22 04:32:17;;;;;;;14.70;3.40;;;;;;;5.76;59.61;100973.57;107574;1254;112120;-61
2023/02/22 04:34:45;;;;;;;12.30;2.90;;;;;;;5.75;59.60;100978.40;107465;1254;109531;-60
2023/02/22 04:37:14;;;;;;;15.30;3.20;;;;;;;5.75;59.93;100973.48;107624;1253;108207;-60
2023/02/22 04:39:42;;;;;;;22.80;4.60;;;;;;;5.75;59.85;100982.21;107626;1253;97820;-60
2023/02/22 04:42:11;;;;;;;22.10;5.40;;;;;;;5.73;59.93;100981.64;107490;1254;97964;-61
2023/02/22 04:44:41;;;;;;;18.70;4.80;;;;;;;5.70;60.03;100986.11;107433;1254;111858;-60
2023/02/22 04:47:09;;;;;;;15.10;4.10;;;;;;;5.69;59.91;100987.27;107467;1253;109598;-61
2023/02/22 04:49:38;;;;;;;19.40;4.60;;;;;;;5.69;60.02;100991.52;107478;1254;109035;-60
2023/02/22 04:52:07;;;;;;;18.10;4.40;;;;;;;5.69;59.90;100990.24;107503;1257;97885;-60
2023/02/22 04:54:38;;;;;;;17.60;4.60;;;;;;;5.68;59.99;100989.41;107623;1252;98582;-61
2023/02/22 04:57:06;;;;;;;17.70;5.00;;;;;;;5.69;59.97;100984.89;107637;1253;111873;-59
2023/02/22 04:59:35;;;;;;;13.90;4.20;;;;;;;5.70;59.90;100985.38;107442;1254;109871;-60
2023/02/22 05:02:03;;;;;;;14.60;4.30;;;;;;;5.70;59.82;100992.67;107498;1253;107868;-60
2023/02/22 05:04:32;;;;;;;15.70;4.30;;;;;;;5.70;59.88;100996.23;107548;1253;97780;-62
2023/02/22 05:07:00;;;;;;;18.50;3.50;;;;;;;5.69;59.85;101002.20;107566;1254;98347;-60
2023/02/22 05:09:28;;;;;;;14.80;3.90;;;;;;;5.63;59.62;101010.92;107500;1254;111592;-61
2023/02/22 05:12:04;;;;;;;13.10;3.50;;;;;;;5.56;59.56;101014.04;107639;1254;109127;-63
2023/02/22 05:14:37;;;;;;;16.90;4.50;;;;;;;5.52;59.68;101017.81;107353;1254;107852;-59
2023/02/22 05:17:05;;;;;;;21.90;6.60;;;;;;;5.50;59.51;101018.50;107641;1254;97996;-60
2023/02/22 05:19:33;;;;;;;16.00;5.20;;;;;;;5.46;59.76;101022.27;107601;1256;98359;-61
2023/02/22 05:22:02;;;;;;;28.30;6.80;;;;;;;5.44;59.96;101031.12;107640;1253;111836;-60
2023/02/22 05:24:31;;;;;;;18.10;4.80;;;;;;;5.40;59.87;101034.61;107654;1253;109198;-59
2023/02/22 05:27:00;;;;;;;20.90;6.40;;;;;;;5.34;59.81;101038.33;107590;1253;107810;-60
2023/02/22 05:29:28;;;;;;;29.30;6.10;;;;;;;5.30;60.12;101040.54;107617;1253;97832;-60
2023/02/22 05:31:57;;;;;;;17.40;6.00;;;;;;;5.28;60.35;101041.58;107632;1254;98367;-60
2023/02/22 05:34:25;;;;;;;56.00;29.00;;;;;;;5.26;60.46;101047.20;107604;1254;112328;-60
2023/02/22 05:36:53;;;;;;;38.50;18.40;;;;;;;5.22;60.54;101050.63;107650;1253;110050;-62
2023/02/22 05:39:22;;;;;;;18.20;6.50;;;;;;;5.19;60.63;101055.09;107627;1253;108245;-61
2023/02/22 05:41:51;;;;;;;23.60;6.10;;;;;;;5.17;60.84;101059.48;107643;1254;97825;-59
2023/02/22 05:44:19;;;;;;;21.60;5.70;;;;;;;5.14;60.90;101060.02;107618;1253;97729;-60
2023/02/22 05:46:48;;;;;;;19.00;5.80;;;;;;;5.12;60.78;101060.66;107678;1254;110945;-60
2023/02/22 05:49:17;;;;;;;18.70;5.00;;;;;;;5.11;60.91;101068.02;107632;1253;109981;-59
2023/02/22 05:51:45;;;;;;;14.80;4.30;;;;;;;5.08;60.89;101070.31;107613;1253;108290;-60
2023/02/22 05:54:14;;;;;;;15.90;4.50;;;;;;;5.10;61.12;101073.02;107439;1253;97935;-61
2023/02/22 05:56:42;;;;;;;25.60;9.20;;;;;;;5.11;61.01;101080.45;107606;1253;97907;-60
2023/02/22 05:59:11;;;;;;;17.00;5.00;;;;;;;5.14;61.00;101085.25;107607;1254;111884;-60
2023/02/22 06:01:39;;;;;;;17.40;4.60;;;;;;;5.20;60.81;101086.87;107623;1254;109254;-59
2023/02/22 06:04:08;;;;;;;23.50;5.60;;;;;;;5.25;60.57;101088.86;107625;1253;108101;-60
2023/02/22 06:06:36;;;;;;;18.90;7.50;;;;;;;5.29;60.57;101093.08;107640;1254;97828;-59
2023/02/22 06:09:04;;;;;;;17.80;5.10;;;;;;;5.32;60.48;101101.23;107609;1254;99617;-60
2023/02/22 06:11:33;;;;;;;12.40;4.60;;;;;;;5.36;60.28;101103.14;107698;1254;112095;-60
2023/02/22 06:14:01;;;;;;;22.00;4.50;;;;;;;5.35;60.21;101106.20;107694;1254;110828;-61
2023/02/22 06:16:30;;;;;;;16.00;4.10;;;;;;;5.38;60.18;101106.42;107557;1253;107835;-62
2023/02/22 06:18:59;;;;;;;17.30;5.00;;;;;;;5.39;59.71;101108.48;107516;1254;97831;-61
2023/02/22 06:21:28;;;;;;;13.80;3.80;;;;;;;5.41;59.49;101109.79;107626;1252;97743;-60
2023/02/22 06:23:57;;;;;;;19.80;5.80;;;;;;;5.43;59.35;101111.60;107634;1254;111335;-62
2023/02/22 06:26:25;;;;;;;16.90;5.50;;;;;;;5.47;59.37;101110.98;107622;1254;109804;-61
2023/02/22 06:28:54;;;;;;;28.00;8.50;;;;;;;5.53;59.06;101116.34;107470;1254;108768;-60
2023/02/22 06:31:22;;;;;;;14.40;5.30;;;;;;;5.56;58.64;101115.65;107633;1254;97798;-61
2023/02/22 06:33:51;;;;;;;26.10;6.20;;;;;;;5.58;58.62;101120.27;107669;1253;97698;-60
2023/02/22 06:36:19;;;;;;;27.70;6.40;;;;;;;5.61;58.74;101122.05;107627;1254;111784;-60
2023/02/22 06:38:48;;;;;;;18.80;5.80;;;;;;;5.66;58.46;101126.03;107647;1254;109710;-61
2023/02/22 06:41:16;;;;;;;20.80;5.10;;;;;;;5.70;58.46;101123.63;107636;1253;107814;-60
2023/02/22 06:43:47;;;;;;;29.80;7.20;;;;;;;5.77;58.47;101133.38;107644;1253;97704;-61
2023/02/22 06:46:15;;;;;;;28.30;7.90;;;;;;;5.82;58.07;101132.50;107503;1253;97954;-61
2023/02/22 06:48:44;;;;;;;26.20;7.30;;;;;;;5.85;57.98;101134.85;107500;1254;111737;-62
2023/02/22 06:51:12;;;;;;;25.10;8.60;;;;;;;5.85;57.73;101137.66;107611;1253;109911;-61
2023/02/22 06:53:41;;;;;;;22.50;6.70;;;;;;;5.90;57.99;101138.08;107606;1254;108815;-59
2023/02/22 06:56:10;;;;;;;21.50;6.50;;;;;;;5.97;57.73;101139.95;107620;1254;97786;-59
2023/02/22 06:58:39;;;;;;;18.40;5.00;;;;;;;6.03;57.59;101139.45;107529;1253;99059;-60
2023/02/22 07:01:07;;;;;;;25.20;6.00;;;;;;;6.09;57.50;101137.46;107601;1254;110082;-61
2023/02/22 07:03:36;;;;;;;24.00;6.50;;;;;;;6.11;57.53;101133.38;107666;1254;108686;-62
2023/02/22 07:06:06;;;;;;;20.10;6.60;;;;;;;6.17;57.44;101129.95;107524;1253;108259;-60
2023/02/22 07:08:35;;;;;;;23.40;5.60;;;;;;;6.27;57.84;101132.20;107360;1253;97826;-60
2023/02/22 07:11:04;;;;;;;17.40;6.30;;;;;;;6.36;57.58;101134.11;107601;1253;97912;-60
2023/02/22 07:13:32;;;;;;;26.00;7.60;;;;;;;6.42;57.38;101137.44;107679;1254;112383;-61
2023/02/22 07:16:01;;;;;;;26.50;8.10;;;;;;;6.48;57.24;101140.47;107702;1253;109569;-60
2023/02/22 07:18:29;;;;;;;27.00;8.20;;;;;;;6.55;57.38;101143.92;107623;1253;108635;-60
2023/02/22 07:20:58;;;;;;;13.70;4.80;;;;;;;6.64;57.26;101143.52;107647;1254;97704;-61
2023/02/22 07:23:26;;;;;;;18.60;5.70;;;;;;;6.72;56.89;101144.59;107673;1253;98353;-61
2023/02/22 07:25:55;;;;;;;22.90;5.90;;;;;;;6.82;56.76;101142.15;107636;1254;111658;-61
2023/02/22 07:28:23;;;;;;;17.40;5.30;;;;;;;6.90;56.59;101148.59;107660;1256;109235;-61
2023/02/22 07:30:52;;;;;;;22.80;6.00;;;;;;;6.95;55.46;101151.27;107442;1253;108413;-61
2023/02/22 07:33:20;;;;;;;17.80;4.90;;;;;;;6.99;55.28;101152.27;107468;1254;97866;-61
2023/02/22 07:35:49;;;;;;;19.50;4.80;;;;;;;7.00;55.02;101156.27;107474;1253;97940;-61
2023/02/22 07:38:19;;;;;;;18.10;4.50;;;;;;;7.04;55.06;101164.19;107662;1253;112299;-60
2023/02/22 07:40:47;;;;;;;14.40;5.70;;;;;;;7.07;54.11;101163.88;107638;1254;109113;-60
2023/02/22 07:43:26;;;;;;;15.90;5.60;;;;;;;7.09;54.40;101158.40;107617;1253;108529;-61
2023/02/22 07:45:56;;;;;;;20.10;4.20;;;;;;;7.20;54.43;101162.23;107608;1253;97909;-62
2023/02/22 07:48:27;;;;;;;18.80;5.30;;;;;;;7.28;54.31;101164.40;107654;1253;97720;-61
2023/02/22 07:50:57;;;;;;;21.40;7.90;;;;;;;7.33;53.95;101163.15;107626;1256;110759;-60
2023/02/22 07:53:29;;;;;;;18.80;5.00;;;;;;;7.38;53.37;101169.75;107666;1253;109106;-61
2023/02/22 07:56:00;;;;;;;18.90;4.90;;;;;;;7.40;52.63;101170.35;107617;1256;108317;-61
2023/02/22 07:58:30;;;;;;;15.30;4.80;;;;;;;7.50;53.06;101166.29;107514;1253;97826;-59
2023/02/22 08:01:03;;;;;;;19.60;5.20;;;;;;;7.59;52.47;101166.54;107583;1253;97829;-60
2023/02/22 08:03:35;;;;;;;27.70;5.10;;;;;;;7.66;52.44;101164.83;107695;1252;110562;-62
2023/02/22 08:06:06;;;;;;;15.80;3.80;;;;;;;7.77;52.89;101159.08;107706;1253;109155;-61
2023/02/22 08:08:34;;;;;;;18.50;4.60;;;;;;;7.93;52.84;101158.61;107659;1253;108759;-60
2023/02/22 08:11:03;;;;;;;13.80;4.20;;;;;;;8.00;52.04;101156.16;107624;1254;97844;-61
2023/02/22 08:13:32;;;;;;;20.00;4.50;;;;;;;8.11;52.54;101158.95;107524;1254;98386;-61
2023/02/22 08:16:00;;;;;;;14.90;4.40;;;;;;;8.21;52.22;101157.38;107667;1254;112283;-62
2023/02/22 08:18:28;;;;;;;19.00;4.10;;;;;;;8.27;51.94;101155.48;107628;1253;109200;-61
2023/02/22 08:20:57;;;;;;;17.30;4.10;;;;;;;8.28;51.13;101158.08;107635;1254;108110;-61
2023/02/22 08:23:26;;;;;;;22.30;5.30;;;;;;;8.35;51.36;101163.85;107605;1253;97855;-61
2023/02/22 08:25:55;;;;;;;18.60;4.60;;;;;;;8.42;50.68;101165.16;107677;1252;97832;-61
2023/02/22 08:28:23;;;;;;;15.90;4.40;;;;;;;8.38;51.02;101168.63;107711;1251;111290;-61
2023/02/22 08:30:52;;;;;;;15.90;4.40;;;;;;;8.42;51.06;101166.95;107580;1254;109999;-60
2023/02/22 08:33:21;;;;;;;16.60;4.60;;;;;;;8.52;51.60;101169.84;107528;1254;108714;-61
2023/02/22 08:35:50;;;;;;;17.80;4.10;;;;;;;8.64;51.11;101171.83;107604;1254;97825;-60
2023/02/22 08:38:28;;;;;;;14.90;4.20;;;;;;;8.70;51.25;101173.84;107571;1254;98357;-62
2023/02/22 08:40:57;;;;;;;14.70;3.80;;;;;;;8.82;50.70;101175.09;107586;1253;111809;-61
2023/02/22 08:43:27;;;;;;;19.90;4.60;;;;;;;8.86;50.82;101178.59;107605;1254;109484;-62
2023/02/22 08:45:55;;;;;;;18.90;4.40;;;;;;;8.98;50.86;101170.13;107639;1253;106728;-61
2023/02/22 08:48:25;;;;;;;16.40;4.40;;;;;;;9.10;50.90;101176.59;107616;1252;97808;-63
2023/02/22 08:50:55;;;;;;;12.60;4.20;;;;;;;9.15;50.63;101186.41;107605;1253;97838;-62
2023/02/22 08:53:23;;;;;;;18.30;3.40;;;;;;;9.18;49.83;101184.55;107636;1253;112832;-62
2023/02/22 08:55:52;;;;;;;14.40;3.10;;;;;;;9.25;49.77;101191.23;107499;1253;109919;-62
2023/02/22 08:58:21;;;;;;;11.80;3.60;;;;;;;9.27;49.15;101189.27;107605;1254;107704;-61
2023/02/22 09:00:49;;;;;;;15.00;3.60;;;;;;;9.27;49.06;101190.50;107593;1254;97863;-60
2023/02/22 09:03:18;;;;;;;13.80;3.40;;;;;;;9.31;49.29;101190.73;107532;1253;97931;-60
2023/02/22 09:05:47;;;;;;;17.80;4.50;;;;;;;9.29;48.73;101192.70;107558;1256;112316;-61
2023/02/22 09:08:16;;;;;;;11.40;3.80;;;;;;;9.30;49.41;101196.02;107602;1253;109851;-61
2023/02/22 09:10:45;;;;;;;12.90;3.30;;;;;;;9.36;48.96;101190.53;107616;1254;107290;-63
2023/02/22 09:13:13;;;;;;;8.40;2.80;;;;;;;9.45;48.78;101192.59;107612;1256;97902;-61
2023/02/22 09:15:42;;;;;;;14.40;3.60;;;;;;;9.49;49.09;101197.40;107616;1254;98473;-60
2023/02/22 09:18:13;;;;;;;14.50;4.20;;;;;;;9.59;49.02;101194.69;107628;1254;110599;-61
2023/02/22 09:20:41;;;;;;;13.60;3.30;;;;;;;9.72;49.10;101199.42;107604;1254;110625;-61
2023/02/22 09:23:10;;;;;;;8.50;2.70;;;;;;;9.79;48.94;101201.94;107563;1254;107857;-61
2023/02/22 09:25:39;;;;;;;14.80;3.70;;;;;;;9.88;48.55;101206.96;107633;1255;97723;-60
2023/02/22 09:28:08;;;;;;;14.90;3.60;;;;;;;9.93;48.51;101203.94;107662;1253;98319;-59
2023/02/22 09:30:37;;;;;;;14.60;3.70;;;;;;;9.97;48.44;101205.94;107617;1254;113092;-60
2023/02/22 09:33:12;;;;;;;12.00;3.20;;;;;;;10.04;48.39;101211.45;107509;1253;109181;-60
2023/02/22 09:35:45;;;;;;;12.70;3.60;;;;;;;10.07;48.42;101213.54;107596;1254;107616;-61
2023/02/22 09:38:21;;;;;;;14.70;4.20;;;;;;;10.05;47.60;101209.42;107589;1254;98006;-61
2023/02/22 09:41:22;;;;;;;12.30;3.40;;;;;;;9.96;47.91;101210.29;107623;1253;98339;-60
2023/02/22 09:44:16;;;;;;;15.80;3.90;;;;;;;9.94;48.45;101214.42;106913;1254;112943;-61
2023/02/22 09:46:46;;;;;;;10.00;3.60;;;;;;;10.09;48.61;101210.89;107508;1253;109282;-61
2023/02/22 09:49:24;;;;;;;20.40;5.80;;;;;;;10.37;48.10;101208.83;107680;1255;107286;-61
2023/02/22 09:52:20;;;;;;;11.10;3.10;;;;;;;10.54;47.62;101210.57;106768;1254;1164332;-60
2023/02/22 09:55:05;;;;;;;15.60;5.00;;;;;;;10.41;47.52;101213.39;107556;1253;97723;-60
2023/02/22 09:57:40;;;;;;;10.70;3.70;;;;;;;10.36;47.40;101208.58;107498;1254;112353;-61
2023/02/22 10:00:21;;;;;;;6.40;2.80;;;;;;;10.33;47.20;101211.08;107546;1257;107584;-60
2023/02/22 10:02:58;;;;;;;44.20;5.10;;;;;;;10.30;47.46;101210.27;107571;1254;108643;-60
2023/02/22 10:05:42;;;;;;;16.20;3.60;;;;;;;10.24;47.59;101213.13;107572;1254;97848;-60
2023/02/22 10:08:17;;;;;;;12.00;3.30;;;;;;;10.25;47.16;101208.58;107596;1253;97792;-61
2023/02/22 10:10:55;;;;;;;11.20;2.90;;;;;;;10.29;47.54;101214.66;107596;1253;110470;-60
2023/02/22 10:13:54;;;;;;;7.90;2.80;;;;;;;10.44;47.58;101222.95;107627;1253;110266;-61
2023/02/22 10:16:42;;;;;;;13.80;3.60;;;;;;;10.57;47.17;101216.38;107586;1254;108170;-60
2023/02/22 10:19:39;;;;;;;12.00;3.60;;;;;;;10.75;46.82;101217.94;107501;1252;97704;-61
2023/02/22 10:22:27;;;;;;;7.40;2.50;;;;;;;11.25;46.18;101212.58;107446;1253;98414;-62
2023/02/22 10:25:06;;;;;;;8.40;3.10;;;;;;;11.56;45.46;101207.24;107609;1253;111219;-61
2023/02/22 10:28:02;;;;;;;14.90;3.00;;;;;;;11.92;45.34;101205.60;107498;1254;110026;-60
2023/02/22 10:30:37;;;;;;;10.00;2.80;;;;;;;12.19;44.70;101209.78;107603;1254;108409;-60
2023/02/22 10:33:18;;;;;;;10.20;2.40;;;;;;;12.58;43.32;101205.78;107603;1254;97723;-60
2023/02/22 10:35:47;;;;;;;12.90;2.50;;;;;;;12.60;42.31;101204.34;107486;1252;97800;-60
2023/02/22 10:38:15;;;;;;;12.10;3.00;;;;;;;12.60;42.13;101202.49;107594;1254;113155;-59
2023/02/22 10:41:00;;;;;;;8.80;2.60;;;;;;;12.48;42.69;101206.17;107502;1253;111263;-61
2023/02/22 10:43:29;;;;;;;6.60;2.40;;;;;;;12.42;42.67;101209.40;107511;1254;108748;-61
2023/02/22 10:46:03;;;;;;;10.40;3.10;;;;;;;12.46;43.28;101206.10;107369;1254;97795;-61
2023/02/22 10:48:37;;;;;;;8.40;2.20;;;;;;;12.51;42.80;101202.73;107593;1254;97822;-60
2023/02/22 10:51:08;;;;;;;5.90;2.40;;;;;;;12.40;43.05;101205.77;107597;1253;111742;-61
2023/02/22 10:53:37;;;;;;;10.20;2.30;;;;;;;12.31;43.14;101200.77;107623;1254;109733;-62
2023/02/22 10:56:21;;;;;;;16.80;2.40;;;;;;;12.24;42.99;101197.80;107490;1256;108459;-61
2023/02/22 10:58:58;;;;;;;10.00;1.90;;;;;;;12.07;43.04;101197.52;107496;1254;97916;-61
2023/02/22 11:01:26;;;;;;;7.90;2.20;;;;;;;11.88;43.52;101194.40;107528;1254;97724;-61
2023/02/22 11:04:10;;;;;;;5.60;1.80;;;;;;;11.83;43.64;101199.21;107553;1253;112047;-60
2023/02/22 11:06:43;;;;;;;3.80;1.90;;;;;;;11.72;42.94;101196.20;107536;1254;109522;-61
2023/02/22 11:09:17;;;;;;;2.80;1.50;;;;;;;11.70;43.04;101196.38;107398;1254;108846;-60
2023/02/22 11:11:47;;;;;;;2.90;1.30;;;;;;;11.79;43.20;101192.02;107493;1254;97832;-60
2023/02/22 11:14:29;;;;;;;3.70;1.20;;;;;;;11.74;42.68;101189.94;107533;1257;97940;-61
2023/02/22 11:17:00;;;;;;;6.90;1.50;;;;;;;11.66;42.96;101194.60;107402;1254;112013;-63
2023/02/22 11:19:31;;;;;;;4.10;1.60;;;;;;;11.60;43.00;101195.26;107529;1253;109971;-60
2023/02/22 11:22:13;;;;;;;4.10;1.30;;;;;;;11.59;43.24;101192.77;107550;1253;107089;-60
2023/02/22 11:25:03;;;;;;;4.30;1.50;;;;;;;11.55;42.99;101193.54;107505;1254;97862;-61
2023/02/22 11:27:52;;;;;;;4.50;1.20;;;;;;;11.47;43.19;101193.52;107517;1253;98466;-60
2023/02/22 11:30:21;;;;;;;46.50;3.40;;;;;;;11.40;43.25;101195.32;107550;1254;111841;-60
2023/02/22 11:33:02;;;;;;;10.60;1.30;;;;;;;11.37;43.04;101198.15;107580;1254;109237;-61
2023/02/22 11:35:38;;;;;;;7.70;1.10;;;;;;;11.39;42.79;101197.61;107577;1254;108289;-61
2023/02/22 11:38:22;;;;;;;3.20;1.50;;;;;;;11.56;42.76;101190.02;107560;1254;97826;-61
2023/02/22 11:41:10;;;;;;;;;;;;;;;12.06;42.36;101184.41;107612;1253;97813;-60